createdAt,value
2018-03-03T00:00:39.199Z,17.70
2018-03-03T00:03:05.827Z,17.72
2018-03-03T00:05:32.408Z,17.72
2018-03-03T00:07:58.969Z,17.73
2018-03-03T00:10:25.573Z,17.71
2018-03-03T00:12:52.144Z,17.73
2018-03-03T00:15:18.706Z,17.73
2018-03-03T00:17:45.346Z,17.74
2018-03-03T00:20:11.938Z,17.78
2018-03-03T00:22:38.496Z,17.76
2018-03-03T00:25:05.093Z,17.73
2018-03-03T00:27:31.673Z,17.79
2018-03-03T00:29:58.235Z,17.80
2018-03-03T00:32:24.804Z,17.81
2018-03-03T00:34:51.368Z,17.81
2018-03-03T00:37:17.948Z,17.82
2018-03-03T00:39:44.526Z,17.84
2018-03-03T00:42:11.128Z,17.86
2018-03-03T00:44:37.738Z,17.84
2018-03-03T00:47:04.365Z,17.87
2018-03-03T00:49:30.938Z,17.88
2018-03-03T00:51:57.528Z,17.89
2018-03-03T00:54:24.092Z,17.90
2018-03-03T00:56:50.656Z,17.91
2018-03-03T00:59:17.316Z,17.90
2018-03-03T01:01:43.890Z,17.93
2018-03-03T01:04:10.532Z,17.93
2018-03-03T01:06:37.114Z,17.95
2018-03-03T01:09:03.655Z,18.00
2018-03-03T01:11:30.268Z,17.98
2018-03-03T01:13:56.843Z,17.97
2018-03-03T01:16:23.475Z,17.98
2018-03-03T01:18:50.041Z,18.00
2018-03-03T01:21:16.646Z,17.99
2018-03-03T01:23:43.247Z,17.98
2018-03-03T01:26:09.829Z,18.03
2018-03-03T01:28:36.450Z,18.01
2018-03-03T01:31:02.959Z,18.00
2018-03-03T01:33:29.546Z,18.04
2018-03-03T01:35:56.152Z,18.06
2018-03-03T01:38:22.720Z,18.04
2018-03-03T01:40:49.287Z,18.05
2018-03-03T01:43:15.889Z,18.06
2018-03-03T01:45:42.461Z,18.06
2018-03-03T01:48:09.093Z,18.08
2018-03-03T01:50:35.663Z,18.09
2018-03-03T01:53:02.261Z,18.11
2018-03-03T01:55:28.835Z,18.10
2018-03-03T01:57:55.400Z,18.13
2018-03-03T02:00:21.982Z,18.13
2018-03-03T02:02:48.539Z,18.14
2018-03-03T02:05:15.104Z,18.18
2018-03-03T02:07:41.688Z,18.19
2018-03-03T02:13:03.922Z,18.25
2018-03-03T02:15:30.544Z,18.26
2018-03-03T02:17:57.096Z,18.29
2018-03-03T02:20:23.918Z,18.34
2018-03-03T02:22:50.486Z,18.37
2018-03-03T02:25:17.092Z,18.42
2018-03-03T02:27:43.665Z,18.46
2018-03-03T02:30:10.238Z,18.47
2018-03-03T02:32:36.870Z,18.55
2018-03-03T02:35:03.491Z,18.57
2018-03-03T02:37:30.048Z,18.71
2018-03-03T02:39:56.657Z,18.82
2018-03-03T02:42:23.210Z,18.91
2018-03-03T02:44:49.772Z,19.06
2018-03-03T02:47:16.373Z,19.00
2018-03-03T02:49:42.909Z,18.97
2018-03-03T02:52:09.466Z,18.89
2018-03-03T02:54:36.077Z,18.95
2018-03-03T02:57:02.699Z,18.96
2018-03-03T02:59:29.350Z,18.96
2018-03-03T03:01:55.932Z,18.96
2018-03-03T03:04:22.543Z,18.94
2018-03-03T03:06:49.117Z,19.03
2018-03-03T03:09:15.696Z,19.02
2018-03-03T03:11:42.312Z,19.02
2018-03-03T03:14:08.874Z,19.05
2018-03-03T03:16:35.463Z,19.06
2018-03-03T03:19:02.005Z,19.09
2018-03-03T03:21:28.559Z,19.11
2018-03-03T03:23:55.126Z,19.12
2018-03-03T03:26:21.685Z,19.09
2018-03-03T03:28:48.247Z,19.14
2018-03-03T03:31:14.815Z,19.16
2018-03-03T03:33:41.372Z,19.16
2018-03-03T03:36:07.975Z,19.17
2018-03-03T03:38:34.541Z,19.20
2018-03-03T03:41:01.135Z,19.22
2018-03-03T03:43:27.734Z,19.25
2018-03-03T03:45:54.341Z,19.26
2018-03-03T03:48:20.920Z,19.23
2018-03-03T03:50:47.490Z,19.28
2018-03-03T03:53:14.060Z,19.25
2018-03-03T03:55:40.663Z,19.23
2018-03-03T03:58:07.367Z,19.27
2018-03-03T04:00:34.116Z,19.25
2018-03-03T04:03:00.687Z,19.20
2018-03-03T04:05:27.246Z,19.19
2018-03-03T04:07:53.851Z,19.15
2018-03-03T04:10:20.418Z,19.08
2018-03-03T04:12:47.030Z,19.06
2018-03-03T04:15:13.648Z,19.02
2018-03-03T04:17:40.209Z,18.98
2018-03-03T04:20:06.776Z,18.93
2018-03-03T04:22:33.341Z,18.89
2018-03-03T04:24:59.951Z,18.89
2018-03-03T04:27:26.533Z,18.83
2018-03-03T04:29:53.152Z,18.83
2018-03-03T04:32:19.746Z,18.76
2018-03-03T04:34:46.308Z,18.74
2018-03-03T04:37:12.907Z,18.69
2018-03-03T04:39:39.505Z,18.68
2018-03-03T04:42:06.111Z,18.60
2018-03-03T04:44:32.738Z,18.58
2018-03-03T04:46:59.337Z,18.57
2018-03-03T04:49:25.904Z,18.55
2018-03-03T04:51:52.546Z,18.52
2018-03-03T04:54:19.106Z,18.46
2018-03-03T04:56:45.712Z,18.42
2018-03-03T04:59:12.315Z,18.43
2018-03-03T05:01:38.985Z,18.36
2018-03-03T05:04:05.573Z,18.39
2018-03-03T05:06:32.149Z,18.32
2018-03-03T05:08:58.787Z,18.29
2018-03-03T05:11:25.384Z,18.27
2018-03-03T05:13:51.992Z,18.26
2018-03-03T05:18:45.149Z,18.17
2018-03-03T05:21:11.723Z,18.13
2018-03-03T05:23:38.326Z,18.11
2018-03-03T05:26:04.929Z,18.07
2018-03-03T05:28:31.486Z,18.04
2018-03-03T05:30:58.047Z,18.00
2018-03-03T05:33:24.658Z,17.97
2018-03-03T05:35:51.251Z,17.91
2018-03-03T05:38:17.956Z,17.93
2018-03-03T05:40:44.517Z,17.86
2018-03-03T05:43:11.079Z,17.86
2018-03-03T05:45:37.720Z,17.84
2018-03-03T05:48:04.388Z,17.81
2018-03-03T05:50:30.944Z,17.82
2018-03-03T05:52:57.551Z,17.83
2018-03-03T05:55:24.121Z,17.86
2018-03-03T05:57:50.728Z,17.86
2018-03-03T06:00:17.305Z,17.87
2018-03-03T06:02:43.855Z,17.90
2018-03-03T06:05:10.474Z,17.91
2018-03-03T06:07:37.205Z,17.92
2018-03-03T06:10:03.799Z,17.95
2018-03-03T06:12:30.418Z,17.91
2018-03-03T06:14:57.030Z,17.91
2018-03-03T06:17:23.643Z,17.95
2018-03-03T06:19:50.216Z,17.95
2018-03-03T06:22:16.820Z,17.97
2018-03-03T06:24:43.396Z,17.98
2018-03-03T06:27:10.015Z,17.97
2018-03-03T06:29:36.590Z,17.98
2018-03-03T06:32:03.272Z,18.00
2018-03-03T06:34:29.878Z,18.00
2018-03-03T06:36:56.477Z,17.98
2018-03-03T06:39:23.042Z,18.00
2018-03-03T06:41:49.656Z,17.98
2018-03-03T06:44:16.260Z,17.96
2018-03-03T06:46:42.865Z,17.99
2018-03-03T06:49:09.422Z,18.00
2018-03-03T06:51:36.229Z,18.04
2018-03-03T06:54:02.833Z,18.04
2018-03-03T06:56:29.397Z,18.00
2018-03-03T06:58:56.005Z,18.03
2018-03-03T07:01:22.575Z,18.01
2018-03-03T07:03:49.188Z,18.01
2018-03-03T07:06:15.776Z,18.01
2018-03-03T07:08:42.387Z,18.00
2018-03-03T07:11:08.943Z,18.02
2018-03-03T07:13:35.537Z,18.01
2018-03-03T07:16:02.280Z,18.01
2018-03-03T07:18:28.816Z,18.02
2018-03-03T07:20:55.371Z,17.99
2018-03-03T07:23:21.984Z,18.01
2018-03-03T07:25:48.563Z,17.96
2018-03-03T07:28:15.119Z,17.93
2018-03-03T07:30:41.718Z,17.95
2018-03-03T07:33:08.315Z,17.95
2018-03-03T07:35:34.880Z,17.92
2018-03-03T07:38:01.430Z,17.93
2018-03-03T07:40:28.041Z,17.92
2018-03-03T07:42:54.667Z,17.92
2018-03-03T07:45:21.245Z,17.95
2018-03-03T07:47:47.812Z,17.93
2018-03-03T07:50:14.460Z,17.92
2018-03-03T07:52:41.027Z,17.90
2018-03-03T07:55:07.699Z,17.89
2018-03-03T07:57:34.314Z,17.88
2018-03-03T08:00:00.917Z,17.88
2018-03-03T08:02:27.475Z,17.88
2018-03-03T08:04:54.084Z,17.82
2018-03-03T08:07:20.645Z,17.78
2018-03-03T08:09:47.269Z,17.75
2018-03-03T08:12:13.827Z,17.71
2018-03-03T08:14:40.384Z,17.65
2018-03-03T08:17:06.986Z,17.58
2018-03-03T08:19:33.553Z,17.51
2018-03-03T08:22:00.148Z,17.45
2018-03-03T08:24:26.743Z,17.39
2018-03-03T08:26:53.305Z,17.30
2018-03-03T08:29:19.877Z,17.31
2018-03-03T08:31:46.478Z,17.24
2018-03-03T08:34:13.058Z,17.19
2018-03-03T08:36:39.659Z,17.14
2018-03-03T08:39:06.507Z,17.11
2018-03-03T08:41:33.124Z,17.10
2018-03-03T08:43:59.678Z,17.08
2018-03-03T08:46:26.242Z,17.06
2018-03-03T08:48:52.844Z,17.04
2018-03-03T08:51:19.435Z,17.02
2018-03-03T08:53:45.960Z,16.98
2018-03-03T08:56:12.568Z,16.89
2018-03-03T08:58:39.219Z,16.89
2018-03-03T09:01:05.788Z,16.90
2018-03-03T09:03:32.394Z,16.93
2018-03-03T09:05:59.048Z,16.97
2018-03-03T09:08:25.612Z,16.91
2018-03-03T09:10:52.167Z,16.86
2018-03-03T09:13:18.776Z,16.85
2018-03-03T09:15:45.378Z,16.85
2018-03-03T09:18:11.992Z,16.78
2018-03-03T09:20:38.602Z,16.76
2018-03-03T09:23:05.213Z,16.74
2018-03-03T09:25:31.796Z,16.68
2018-03-03T09:27:58.385Z,16.65
2018-03-03T09:30:24.975Z,16.64
2018-03-03T09:32:51.604Z,16.61
2018-03-03T09:35:18.222Z,16.59
2018-03-03T09:37:44.787Z,16.57
2018-03-03T09:40:11.355Z,16.57
2018-03-03T09:42:37.971Z,16.52
2018-03-03T09:45:04.525Z,16.55
2018-03-03T09:47:31.128Z,16.48
2018-03-03T09:49:57.689Z,16.53
2018-03-03T09:52:24.243Z,16.42
2018-03-03T09:54:50.858Z,16.39
2018-03-03T09:57:17.461Z,16.33
2018-03-03T09:59:44.061Z,16.36
2018-03-03T10:02:10.622Z,16.28
2018-03-03T10:04:37.237Z,16.26
2018-03-03T10:07:03.817Z,16.17
2018-03-03T10:09:30.398Z,16.10
2018-03-03T10:11:56.986Z,16.07
2018-03-03T10:14:23.581Z,15.98
2018-03-03T10:16:50.171Z,15.99
2018-03-03T10:19:16.725Z,16.05
2018-03-03T10:21:43.447Z,15.94
2018-03-03T10:24:10.004Z,16.05
2018-03-03T10:26:36.556Z,16.00
2018-03-03T10:29:03.170Z,16.08
2018-03-03T10:31:29.779Z,16.10
2018-03-03T10:33:56.348Z,16.08
2018-03-03T10:36:22.947Z,16.30
2018-03-03T10:38:49.556Z,15.43
2018-03-03T10:41:16.108Z,16.28
2018-03-03T10:43:42.726Z,16.31
2018-03-03T10:46:09.288Z,16.29
2018-03-03T10:48:35.846Z,16.11
2018-03-03T10:51:03.457Z,16.15
2018-03-03T10:53:30.019Z,15.95
2018-03-03T10:55:56.580Z,15.89
2018-03-03T10:58:23.213Z,15.80
2018-03-03T11:00:49.818Z,15.89
2018-03-03T11:03:16.386Z,15.84
2018-03-03T11:05:42.991Z,15.89
2018-03-03T11:08:09.550Z,15.79
2018-03-03T11:10:36.127Z,15.82
2018-03-03T11:13:02.768Z,15.82
2018-03-03T11:15:29.384Z,15.86
2018-03-03T11:17:55.947Z,15.80
2018-03-03T11:20:22.557Z,15.81
2018-03-03T11:22:49.176Z,15.78
2018-03-03T11:25:15.730Z,15.74
2018-03-03T11:27:42.335Z,15.73
2018-03-03T11:30:08.932Z,15.70
2018-03-03T11:32:35.542Z,15.74
2018-03-03T11:35:02.140Z,15.68
2018-03-03T11:37:28.751Z,15.73
2018-03-03T11:39:55.378Z,15.67
2018-03-03T11:42:21.940Z,15.78
2018-03-03T11:44:48.543Z,15.74
2018-03-03T11:47:15.153Z,15.86
2018-03-03T11:49:41.712Z,15.84
2018-03-03T11:52:08.272Z,15.84
2018-03-03T11:54:34.874Z,15.78
2018-03-03T11:57:01.439Z,15.85
2018-03-03T11:59:28.060Z,15.85
2018-03-03T12:01:54.620Z,15.82
2018-03-03T12:04:21.186Z,15.85
2018-03-03T12:06:47.780Z,15.87
2018-03-03T12:09:14.346Z,15.84
2018-03-03T12:11:40.957Z,15.89
2018-03-03T12:14:07.599Z,15.87
2018-03-03T12:16:34.155Z,15.87
2018-03-03T12:19:00.752Z,15.87
2018-03-03T12:21:27.357Z,15.85
2018-03-03T12:23:53.979Z,15.81
2018-03-03T12:26:20.602Z,15.83
2018-03-03T12:28:47.160Z,15.82
2018-03-03T12:31:13.725Z,15.83
2018-03-03T12:33:40.343Z,15.90
2018-03-03T12:36:06.909Z,15.93
2018-03-03T12:38:33.465Z,15.96
2018-03-03T12:41:00.067Z,16.04
2018-03-03T12:43:26.624Z,16.00
2018-03-03T12:45:53.227Z,16.08
2018-03-03T12:48:19.840Z,16.10
2018-03-03T12:50:46.400Z,16.15
2018-03-03T12:53:13.058Z,16.18
2018-03-03T12:55:39.657Z,16.27
2018-03-03T12:58:06.218Z,16.27
2018-03-03T13:00:32.863Z,16.35
2018-03-03T13:02:59.422Z,16.35
2018-03-03T13:05:25.979Z,16.41
2018-03-03T13:07:52.580Z,16.40
2018-03-03T13:10:19.186Z,16.47
2018-03-03T13:12:45.820Z,16.47
2018-03-03T13:15:12.344Z,16.53
2018-03-03T13:17:38.947Z,16.54
2018-03-03T13:20:05.503Z,16.58
2018-03-03T13:22:32.074Z,16.60
2018-03-03T13:24:58.680Z,16.63
2018-03-03T13:27:25.268Z,16.67
2018-03-03T13:29:51.868Z,16.67
2018-03-03T13:32:18.429Z,16.69
2018-03-03T13:34:45.028Z,16.71
2018-03-03T13:37:11.640Z,16.72
2018-03-03T13:39:38.245Z,16.72
2018-03-03T13:42:04.889Z,16.76
2018-03-03T13:44:31.452Z,16.75
2018-03-03T13:46:58.049Z,16.80
2018-03-03T13:49:24.612Z,16.81
2018-03-03T13:51:51.208Z,16.81
2018-03-03T13:54:17.767Z,16.85
2018-03-03T13:56:44.372Z,16.85
2018-03-03T13:59:10.941Z,16.83
2018-03-03T14:01:37.497Z,16.83
2018-03-03T14:04:04.116Z,16.86
2018-03-03T14:06:30.681Z,16.85
2018-03-03T14:08:57.272Z,16.84
2018-03-03T14:11:23.896Z,16.86
2018-03-03T14:13:50.446Z,16.85
2018-03-03T14:16:17.048Z,16.85
2018-03-03T14:18:43.658Z,16.85
2018-03-03T14:21:10.229Z,16.86
2018-03-03T14:23:36.788Z,16.87
2018-03-03T14:26:03.420Z,16.87
2018-03-03T14:28:29.978Z,16.87
2018-03-03T14:30:56.538Z,16.88
2018-03-03T14:33:23.142Z,16.85
2018-03-03T14:35:49.749Z,16.87
2018-03-03T14:38:16.337Z,16.79
2018-03-03T14:40:42.938Z,16.88
2018-03-03T14:43:09.543Z,16.86
2018-03-03T14:45:36.160Z,16.89
2018-03-03T14:48:02.718Z,16.85
2018-03-03T14:50:29.276Z,16.86
2018-03-03T14:52:55.905Z,16.81
2018-03-03T14:55:22.542Z,16.81
2018-03-03T14:57:49.198Z,16.75
2018-03-03T15:00:15.785Z,16.75
2018-03-03T15:02:42.365Z,16.71
2018-03-03T15:05:08.973Z,16.74
2018-03-03T15:07:35.533Z,16.71
2018-03-03T15:10:02.185Z,16.69
2018-03-03T15:12:28.746Z,16.70
2018-03-03T15:14:55.385Z,16.70
2018-03-03T15:17:22.002Z,16.67
2018-03-03T15:19:48.656Z,16.67
2018-03-03T15:22:15.200Z,16.66
2018-03-03T15:24:41.766Z,16.66
2018-03-03T15:27:08.374Z,16.65
2018-03-03T15:29:35.001Z,16.63
2018-03-03T15:32:01.577Z,16.64
2018-03-03T15:34:28.171Z,16.63
2018-03-03T15:36:54.774Z,16.63
2018-03-03T15:39:21.468Z,16.62
2018-03-03T15:41:47.948Z,16.60
2018-03-03T15:44:14.558Z,16.63
2018-03-03T15:46:41.127Z,16.62
2018-03-03T15:49:07.762Z,16.63
2018-03-03T15:51:34.375Z,16.62
2018-03-03T15:54:00.933Z,16.62
2018-03-03T15:56:27.523Z,16.61
2018-03-03T15:58:54.104Z,16.61
2018-03-03T16:01:20.674Z,16.60
2018-03-03T16:03:47.273Z,16.62
2018-03-03T16:06:13.852Z,16.60
2018-03-03T16:08:40.459Z,16.56
2018-03-03T16:11:07.030Z,16.54
2018-03-03T16:13:33.589Z,16.54
2018-03-03T16:16:00.233Z,16.53
2018-03-03T16:18:26.835Z,16.52
2018-03-03T16:20:53.396Z,16.53
2018-03-03T16:23:20.011Z,16.53
2018-03-03T16:25:46.631Z,16.52
2018-03-03T16:28:13.170Z,16.53
2018-03-03T16:30:39.788Z,16.53
2018-03-03T16:33:06.371Z,16.54
2018-03-03T16:35:32.980Z,16.51
2018-03-03T16:37:59.588Z,16.50
2018-03-03T16:40:26.206Z,16.52
2018-03-03T16:42:52.836Z,16.53
2018-03-03T16:45:19.408Z,16.48
2018-03-03T16:47:46.006Z,16.47
2018-03-03T16:50:12.645Z,16.45
2018-03-03T16:52:39.229Z,16.43
2018-03-03T16:55:05.795Z,16.42
2018-03-03T16:57:32.473Z,16.41
2018-03-03T16:59:59.096Z,16.39
2018-03-03T17:02:25.712Z,16.35
2018-03-03T17:04:52.268Z,16.37
2018-03-03T17:07:18.866Z,16.35
2018-03-03T17:09:45.471Z,16.32
2018-03-03T17:12:12.026Z,16.32
2018-03-03T17:14:38.702Z,16.33
2018-03-03T17:17:05.210Z,16.31
2018-03-03T17:19:31.844Z,16.32
2018-03-03T17:21:58.423Z,16.27
2018-03-03T17:24:25.009Z,16.28
2018-03-03T17:26:51.588Z,16.28
2018-03-03T17:29:18.200Z,16.27
2018-03-03T17:31:44.761Z,16.25
2018-03-03T17:34:11.359Z,16.24
2018-03-03T17:36:37.999Z,16.27
2018-03-03T17:39:04.605Z,16.23
2018-03-03T17:41:31.166Z,16.24
2018-03-03T17:43:57.774Z,16.23
2018-03-03T17:46:24.410Z,16.22
2018-03-03T17:48:50.941Z,16.21
2018-03-03T17:51:17.498Z,16.21
2018-03-03T17:53:44.101Z,16.24
2018-03-03T17:56:10.663Z,16.24
2018-03-03T17:58:37.276Z,16.27
2018-03-03T18:01:03.837Z,16.25
2018-03-03T18:03:30.401Z,16.27
2018-03-03T18:05:57.017Z,16.26
2018-03-03T18:08:23.584Z,16.30
2018-03-03T18:10:50.239Z,16.29
2018-03-03T18:13:16.811Z,16.32
2018-03-03T18:15:43.369Z,16.33
2018-03-03T18:18:09.979Z,16.33
2018-03-03T18:20:36.563Z,16.35
2018-03-03T18:23:03.220Z,16.34
2018-03-03T18:25:29.786Z,16.35
2018-03-03T18:27:56.350Z,16.36
2018-03-03T18:30:22.991Z,16.37
2018-03-03T18:32:49.597Z,16.36
2018-03-03T18:35:16.161Z,16.37
2018-03-03T18:37:42.799Z,16.38
2018-03-03T18:40:09.413Z,16.42
2018-03-03T18:42:35.970Z,16.18
2018-03-03T18:45:02.561Z,16.40
2018-03-03T18:47:29.164Z,16.45
2018-03-03T18:49:55.771Z,16.43
2018-03-03T18:52:22.333Z,16.42
2018-03-03T18:54:48.957Z,16.46
2018-03-03T18:57:15.518Z,16.43
2018-03-03T18:59:42.116Z,16.44
2018-03-03T19:02:08.677Z,16.42
2018-03-03T19:04:35.293Z,16.42
2018-03-03T19:07:01.861Z,16.41
2018-03-03T19:09:28.466Z,16.42
2018-03-03T19:11:55.067Z,16.41
2018-03-03T19:14:21.690Z,16.42
2018-03-03T19:16:48.258Z,16.41
2018-03-03T19:19:24.950Z,16.44
2018-03-03T19:21:56.079Z,16.44
2018-03-03T19:24:22.714Z,16.49
2018-03-03T19:26:49.346Z,16.49
2018-03-03T19:29:15.908Z,16.50
2018-03-03T19:31:42.480Z,16.54
2018-03-03T19:34:09.104Z,16.50
2018-03-03T19:36:35.674Z,16.52
2018-03-03T19:39:02.402Z,16.55
2018-03-03T19:41:29.008Z,16.58
2018-03-03T19:43:55.644Z,16.62
2018-03-03T19:46:22.248Z,16.66
2018-03-03T19:48:48.884Z,16.70
2018-03-03T19:51:15.503Z,16.77
2018-03-03T19:53:42.074Z,16.80
2018-03-03T19:56:08.811Z,16.84
2018-03-03T19:58:35.390Z,16.91
2018-03-03T20:01:02.029Z,16.96
2018-03-03T20:03:28.631Z,17.01
2018-03-03T20:05:55.328Z,17.05
2018-03-03T20:08:21.955Z,17.10
2018-03-03T20:10:48.520Z,17.13
2018-03-03T20:13:15.132Z,17.18
2018-03-03T20:15:41.702Z,17.22
2018-03-03T20:18:08.337Z,17.25
2018-03-03T20:20:34.906Z,17.33
2018-03-03T20:23:01.510Z,17.36
2018-03-03T20:25:28.199Z,17.39
2018-03-03T20:27:54.806Z,17.39
2018-03-03T20:30:21.364Z,17.44
2018-03-03T20:32:48.022Z,17.46
2018-03-03T20:35:14.631Z,17.52
2018-03-03T20:37:41.223Z,17.54
2018-03-03T20:40:08.049Z,17.59
2018-03-03T20:42:34.622Z,17.65
2018-03-03T20:45:01.342Z,17.67
2018-03-03T20:47:27.902Z,17.71
2018-03-03T20:49:54.523Z,17.77
2018-03-03T20:52:21.153Z,17.78
2018-03-03T20:54:47.755Z,17.79
2018-03-03T20:57:14.358Z,17.85
2018-03-03T20:59:40.944Z,17.87
2018-03-03T21:02:07.948Z,17.92
2018-03-03T21:04:34.548Z,17.94
2018-03-03T21:07:01.122Z,17.95
2018-03-03T21:09:27.791Z,17.96
2018-03-03T21:11:54.404Z,17.98
2018-03-03T21:14:21.008Z,18.04
2018-03-03T21:16:47.576Z,18.04
2018-03-03T21:19:14.183Z,18.07
2018-03-03T21:21:40.857Z,18.09
2018-03-03T21:24:07.469Z,18.15
2018-03-03T21:26:34.079Z,18.17
2018-03-03T21:29:00.749Z,18.19
2018-03-03T21:31:27.326Z,18.23
2018-03-03T21:33:54.002Z,18.31
2018-03-03T21:36:20.537Z,18.31
2018-03-03T21:38:47.232Z,18.35
2018-03-03T21:41:13.845Z,18.39
2018-03-03T21:43:40.457Z,18.41
2018-03-03T21:46:07.074Z,18.45
2018-03-03T21:48:33.734Z,18.47
2018-03-03T21:51:00.399Z,18.51
2018-03-03T21:53:27.013Z,18.55
2018-03-03T21:55:53.603Z,18.58
2018-03-03T21:58:20.259Z,18.63
2018-03-03T22:00:46.929Z,18.71
2018-03-03T22:03:13.492Z,18.72
2018-03-03T22:05:40.103Z,18.71
2018-03-03T22:08:06.681Z,18.73
2018-03-03T22:10:33.287Z,18.72
2018-03-03T22:12:59.864Z,18.76
2018-03-03T22:15:26.469Z,18.72
2018-03-03T22:17:53.057Z,18.74
2018-03-03T22:20:19.671Z,18.74
2018-03-03T22:22:46.284Z,18.78
2018-03-03T22:25:12.888Z,18.81
2018-03-03T22:27:39.501Z,18.84
2018-03-03T22:30:06.066Z,18.85
2018-03-03T22:32:32.746Z,18.88
2018-03-03T22:34:59.318Z,18.89
2018-03-03T22:37:25.958Z,18.88
2018-03-03T22:39:52.566Z,18.88
2018-03-03T22:42:19.169Z,18.89
2018-03-03T22:44:45.845Z,18.93
2018-03-03T22:47:12.411Z,18.96
2018-03-03T22:49:39.034Z,18.96
2018-03-03T22:52:05.703Z,18.98
2018-03-03T22:54:32.337Z,18.99
2018-03-03T22:56:58.924Z,19.01
2018-03-03T22:59:25.545Z,19.04
2018-03-03T23:01:52.135Z,19.06
2018-03-03T23:04:18.736Z,19.03
2018-03-03T23:06:45.340Z,19.06
2018-03-03T23:09:11.953Z,19.07
2018-03-03T23:11:38.679Z,19.09
2018-03-03T23:14:05.274Z,19.12
2018-03-03T23:16:31.874Z,19.15
2018-03-03T23:18:58.532Z,19.14
2018-03-03T23:21:25.125Z,19.15
2018-03-03T23:23:51.733Z,19.16
2018-03-03T23:26:18.329Z,19.17
2018-03-03T23:28:44.950Z,19.19
2018-03-03T23:31:11.599Z,19.19
2018-03-03T23:33:38.186Z,19.20
2018-03-03T23:36:04.814Z,19.20
2018-03-03T23:38:31.411Z,19.21
2018-03-03T23:40:57.985Z,19.21
2018-03-03T23:43:24.625Z,19.25
2018-03-03T23:45:51.202Z,19.28
2018-03-03T23:48:17.774Z,19.28
2018-03-03T23:50:44.407Z,19.28
2018-03-03T23:53:11.015Z,19.30
2018-03-03T23:55:37.638Z,19.29
2018-03-03T23:58:04.282Z,19.30
